createdAt,value
2022-12-03T00:00:34.504Z,5.52
2022-12-03T00:03:05.849Z,5.48
2022-12-03T00:05:35.543Z,5.54
2022-12-03T00:08:05.172Z,5.60
2022-12-03T00:10:35.051Z,5.60
2022-12-03T00:13:09.739Z,5.65
2022-12-03T00:15:39.770Z,5.64
2022-12-03T00:18:10.545Z,5.69
2022-12-03T00:20:40.069Z,5.69
2022-12-03T00:23:09.571Z,5.68
2022-12-03T00:25:39.124Z,5.67
2022-12-03T00:28:08.814Z,5.67
2022-12-03T00:30:38.255Z,5.68
2022-12-03T00:33:07.756Z,5.71
2022-12-03T00:35:38.617Z,5.63
2022-12-03T00:38:08.139Z,5.57
2022-12-03T00:40:37.612Z,5.57
2022-12-03T00:43:07.320Z,5.55
2022-12-03T00:45:36.862Z,5.55
2022-12-03T00:48:06.546Z,5.57
2022-12-03T00:50:36.078Z,5.56
2022-12-03T00:53:07.012Z,5.54
2022-12-03T00:55:36.591Z,5.58
2022-12-03T00:58:08.384Z,5.54
2022-12-03T01:00:38.158Z,5.56
2022-12-03T01:03:07.726Z,5.61
2022-12-03T01:05:37.181Z,5.58
2022-12-03T01:08:08.273Z,5.55
2022-12-03T01:10:37.838Z,5.60
2022-12-03T01:13:07.940Z,5.60
2022-12-03T01:15:38.325Z,5.62
2022-12-03T01:18:08.099Z,5.66
2022-12-03T01:20:38.654Z,5.67
2022-12-03T01:23:09.548Z,5.64
2022-12-03T01:25:39.074Z,5.58
2022-12-03T01:28:08.577Z,5.64
2022-12-03T01:30:59.129Z,5.66
2022-12-03T01:33:27.725Z,5.62
2022-12-03T01:35:57.192Z,5.64
2022-12-03T01:38:28.101Z,5.66
2022-12-03T01:40:57.801Z,5.66
2022-12-03T01:43:27.484Z,5.64
2022-12-03T01:45:57.064Z,5.63
2022-12-03T01:48:26.530Z,5.64
2022-12-03T01:50:56.067Z,5.63
2022-12-03T01:53:25.633Z,5.63
2022-12-03T01:55:56.584Z,5.61
2022-12-03T01:58:27.654Z,5.62
2022-12-03T02:00:57.964Z,5.63
2022-12-03T02:03:27.683Z,5.64
2022-12-03T02:05:57.998Z,5.68
2022-12-03T02:08:28.137Z,5.67
2022-12-03T02:10:59.976Z,5.64
2022-12-03T02:13:30.357Z,5.69
2022-12-03T02:16:00.718Z,5.69
2022-12-03T02:18:30.489Z,5.67
2022-12-03T02:21:04.086Z,5.71
2022-12-03T02:23:36.736Z,5.75
2022-12-03T02:26:16.658Z,5.74
2022-12-03T02:28:46.216Z,5.73
2022-12-03T02:31:15.945Z,5.74
2022-12-03T02:33:45.709Z,5.74
2022-12-03T02:36:15.183Z,5.72
2022-12-03T02:38:45.828Z,5.72
2022-12-03T02:41:33.015Z,5.77
2022-12-03T02:44:02.840Z,5.70
2022-12-03T02:46:32.662Z,5.71
2022-12-03T02:49:03.127Z,5.74
2022-12-03T02:51:33.115Z,5.71
2022-12-03T02:54:03.564Z,5.73
2022-12-03T02:56:34.600Z,5.70
2022-12-03T02:59:06.497Z,5.72
2022-12-03T03:01:36.169Z,5.69
2022-12-03T03:04:06.884Z,5.70
2022-12-03T03:06:36.468Z,5.71
2022-12-03T03:09:05.989Z,5.73
2022-12-03T03:11:37.206Z,5.64
2022-12-03T03:14:07.282Z,5.63
2022-12-03T03:16:37.382Z,5.63
2022-12-03T03:19:07.507Z,5.67
2022-12-03T03:21:37.020Z,5.64
2022-12-03T03:24:06.963Z,5.65
2022-12-03T03:26:38.011Z,5.69
2022-12-03T03:29:07.589Z,5.62
2022-12-03T03:31:37.437Z,5.63
2022-12-03T03:34:07.167Z,5.69
2022-12-03T03:36:36.912Z,5.72
2022-12-03T03:39:06.730Z,5.72
2022-12-03T03:41:36.813Z,5.68
2022-12-03T03:44:09.238Z,5.68
2022-12-03T03:46:39.636Z,5.63
2022-12-03T03:49:10.528Z,5.63
2022-12-03T03:51:40.079Z,5.60
2022-12-03T03:54:09.793Z,5.67
2022-12-03T03:56:39.435Z,5.60
2022-12-03T03:59:10.428Z,5.61
2022-12-03T04:01:40.051Z,5.61
2022-12-03T04:04:19.692Z,5.59
2022-12-03T04:06:51.675Z,5.55
2022-12-03T04:09:21.219Z,5.60
2022-12-03T04:12:09.873Z,5.63
2022-12-03T04:14:41.231Z,5.65
2022-12-03T04:17:11.259Z,5.61
2022-12-03T04:19:40.752Z,5.58
2022-12-03T04:22:27.534Z,5.62
2022-12-03T04:25:17.292Z,5.57
2022-12-03T04:28:04.468Z,5.54
2022-12-03T04:30:35.427Z,5.52
2022-12-03T04:33:21.671Z,5.51
2022-12-03T04:35:51.409Z,5.58
2022-12-03T04:38:20.999Z,5.56
2022-12-03T04:41:04.146Z,5.61
2022-12-03T04:43:35.103Z,5.56
2022-12-03T04:46:06.226Z,5.62
2022-12-03T04:48:35.985Z,5.60
2022-12-03T04:51:05.495Z,5.54
2022-12-03T04:53:36.335Z,5.48
2022-12-03T04:56:06.228Z,5.49
2022-12-03T04:58:35.834Z,5.46
2022-12-03T05:01:06.760Z,5.45
2022-12-03T05:03:36.464Z,5.46
2022-12-03T05:06:06.135Z,5.48
2022-12-03T05:08:35.714Z,5.49
2022-12-03T05:11:05.257Z,5.42
2022-12-03T05:13:35.339Z,5.44
2022-12-03T05:16:07.092Z,5.41
2022-12-03T05:18:36.626Z,5.41
2022-12-03T05:21:06.209Z,5.43
2022-12-03T05:23:35.689Z,5.40
2022-12-03T05:26:05.369Z,5.35
2022-12-03T05:28:35.041Z,5.33
2022-12-03T05:31:06.293Z,5.39
2022-12-03T05:33:39.581Z,5.33
2022-12-03T05:36:13.595Z,5.39
2022-12-03T05:38:43.092Z,5.34
2022-12-03T05:41:29.790Z,5.39
2022-12-03T05:43:59.332Z,5.38
2022-12-03T05:46:30.463Z,5.28
2022-12-03T05:49:00.013Z,5.31
2022-12-03T05:51:29.737Z,5.31
2022-12-03T05:53:59.289Z,5.34
2022-12-03T05:56:28.772Z,5.35
2022-12-03T05:58:58.262Z,5.41
2022-12-03T06:01:28.001Z,5.39
2022-12-03T06:03:59.305Z,5.39
2022-12-03T06:06:28.986Z,5.42
2022-12-03T06:08:58.477Z,5.38
2022-12-03T06:11:29.886Z,5.38
2022-12-03T06:13:59.641Z,5.40
2022-12-03T06:16:29.486Z,5.45
2022-12-03T06:19:00.531Z,5.49
2022-12-03T06:21:30.241Z,5.46
2022-12-03T06:24:01.340Z,5.49
2022-12-03T06:26:31.292Z,5.53
2022-12-03T06:29:01.368Z,5.43
2022-12-03T06:31:31.240Z,5.48
2022-12-03T06:34:02.203Z,5.56
2022-12-03T06:36:31.917Z,5.61
2022-12-03T06:39:01.442Z,5.64
2022-12-03T06:41:30.956Z,5.66
2022-12-03T06:44:00.483Z,5.65
2022-12-03T06:46:30.282Z,5.60
2022-12-03T06:49:00.001Z,5.62
2022-12-03T06:51:30.863Z,5.70
2022-12-03T06:54:00.297Z,5.73
2022-12-03T06:56:35.793Z,5.73
2022-12-03T06:59:07.589Z,5.77
2022-12-03T07:01:37.314Z,5.65
2022-12-03T07:04:06.988Z,5.71
2022-12-03T07:06:37.896Z,5.71
2022-12-03T07:09:07.569Z,5.70
2022-12-03T07:11:41.016Z,5.79
2022-12-03T07:14:12.191Z,5.87
2022-12-03T07:16:43.495Z,5.90
2022-12-03T07:19:13.600Z,5.90
2022-12-03T07:21:44.499Z,5.75
2022-12-03T07:24:14.161Z,5.83
2022-12-03T07:26:43.857Z,5.92
2022-12-03T07:29:14.146Z,5.88
2022-12-03T07:31:43.952Z,5.90
2022-12-03T07:34:13.617Z,5.92
2022-12-03T07:36:44.896Z,5.95
2022-12-03T07:39:14.560Z,5.92
2022-12-03T07:41:44.148Z,5.96
2022-12-03T07:44:15.031Z,6.00
2022-12-03T07:46:47.906Z,6.03
2022-12-03T07:49:17.624Z,6.00
2022-12-03T07:51:54.096Z,6.06
2022-12-03T07:54:23.844Z,5.99
2022-12-03T07:56:59.546Z,6.01
2022-12-03T07:59:30.732Z,6.04
2022-12-03T08:02:00.270Z,6.08
2022-12-03T08:04:29.877Z,6.12
2022-12-03T08:07:00.791Z,6.14
2022-12-03T08:09:31.452Z,6.18
2022-12-03T08:12:04.166Z,6.20
2022-12-03T08:14:34.014Z,6.16
2022-12-03T08:17:10.965Z,6.22
2022-12-03T08:19:41.144Z,6.28
2022-12-03T08:22:14.335Z,6.30
2022-12-03T08:24:44.085Z,6.35
2022-12-03T08:27:17.613Z,6.38
2022-12-03T08:29:47.793Z,6.39
2022-12-03T08:32:17.394Z,6.42
2022-12-03T08:34:46.927Z,6.45
2022-12-03T08:37:19.255Z,6.43
2022-12-03T08:39:49.598Z,6.47
2022-12-03T08:42:38.465Z,6.44
2022-12-03T08:45:27.968Z,6.42
2022-12-03T08:47:58.117Z,6.50
2022-12-03T08:50:28.698Z,6.53
2022-12-03T08:53:02.241Z,6.54
2022-12-03T08:55:35.278Z,6.54
2022-12-03T08:58:15.397Z,6.56
2022-12-03T09:00:45.013Z,6.57
2022-12-03T09:03:17.089Z,6.57
2022-12-03T09:05:46.573Z,6.58
2022-12-03T09:08:17.646Z,6.56
2022-12-03T09:10:47.343Z,6.62
2022-12-03T09:13:17.777Z,6.66
2022-12-03T09:15:47.889Z,6.65
2022-12-03T09:18:17.596Z,6.69
2022-12-03T09:20:47.154Z,6.71
2022-12-03T09:23:17.992Z,6.69
2022-12-03T09:25:47.513Z,6.69
2022-12-03T09:28:17.109Z,6.69
2022-12-03T09:30:46.769Z,6.72
2022-12-03T09:33:16.174Z,6.75
2022-12-03T09:35:45.863Z,6.78
2022-12-03T09:38:15.707Z,6.80
2022-12-03T09:40:46.596Z,6.80
2022-12-03T09:43:16.868Z,6.85
2022-12-03T09:45:46.984Z,6.77
2022-12-03T09:48:17.487Z,6.78
2022-12-03T09:50:47.342Z,6.82
2022-12-03T09:53:18.273Z,6.86
2022-12-03T09:55:50.536Z,6.88
2022-12-03T09:58:24.822Z,6.85
2022-12-03T10:00:54.697Z,6.80
2022-12-03T10:03:29.866Z,6.82
2022-12-03T10:05:59.691Z,6.78
2022-12-03T10:08:32.340Z,6.76
2022-12-03T10:11:03.515Z,6.80
2022-12-03T10:13:34.676Z,6.83
2022-12-03T10:16:04.876Z,6.87
2022-12-03T10:18:41.216Z,6.87
2022-12-03T10:21:15.229Z,6.85
2022-12-03T10:23:48.359Z,6.84
2022-12-03T10:26:36.998Z,6.82
2022-12-03T10:29:13.137Z,6.82
2022-12-03T10:31:42.634Z,6.82
2022-12-03T10:34:12.692Z,6.78
2022-12-03T10:36:42.189Z,6.74
2022-12-03T10:39:13.211Z,6.79
2022-12-03T10:41:45.011Z,6.82
2022-12-03T10:44:17.558Z,6.78
2022-12-03T10:46:47.835Z,6.79
2022-12-03T10:49:18.641Z,6.80
2022-12-03T10:51:48.861Z,6.76
2022-12-03T10:54:20.948Z,6.83
2022-12-03T10:56:53.708Z,6.86
2022-12-03T10:59:31.856Z,6.82
2022-12-03T11:02:01.455Z,6.86
2022-12-03T11:04:33.355Z,6.80
2022-12-03T11:07:03.844Z,6.78
2022-12-03T11:09:34.469Z,6.84
2022-12-03T11:12:08.417Z,6.82
2022-12-03T11:14:57.788Z,6.84
2022-12-03T11:17:47.399Z,6.86
2022-12-03T11:20:37.770Z,6.86
2022-12-03T11:23:11.537Z,6.87
2022-12-03T11:25:50.688Z,6.80
2022-12-03T11:28:35.728Z,6.82
2022-12-03T11:31:11.527Z,6.78
2022-12-03T11:33:41.554Z,6.76
2022-12-03T11:36:31.685Z,6.80
2022-12-03T11:39:06.084Z,6.80
2022-12-03T11:41:36.046Z,6.83
2022-12-03T11:44:31.889Z,6.79
2022-12-03T11:47:10.157Z,6.78
2022-12-03T11:49:46.844Z,6.76
2022-12-03T11:52:21.470Z,6.81
2022-12-03T11:54:53.250Z,6.73
2022-12-03T11:57:31.250Z,6.76
2022-12-03T12:00:04.398Z,6.70
2022-12-03T12:02:35.596Z,6.69
2022-12-03T12:05:18.659Z,6.71
2022-12-03T12:07:48.834Z,6.72
2022-12-03T12:10:33.257Z,6.69
2022-12-03T12:13:03.273Z,6.66
2022-12-03T12:15:51.377Z,6.68
2022-12-03T12:18:42.152Z,6.63
2022-12-03T12:21:30.095Z,6.65
2022-12-03T12:24:19.886Z,6.66
2022-12-03T12:26:51.359Z,6.68
2022-12-03T12:29:21.138Z,6.65
2022-12-03T12:31:54.040Z,6.67
2022-12-03T12:34:25.985Z,6.65
2022-12-03T12:36:56.754Z,6.62
2022-12-03T12:39:27.084Z,6.68
2022-12-03T12:41:56.644Z,6.69
2022-12-03T12:44:26.550Z,6.69
2022-12-03T12:46:56.538Z,6.70
2022-12-03T12:49:29.089Z,6.69
2022-12-03T12:51:58.880Z,6.64
2022-12-03T12:54:28.397Z,6.61
2022-12-03T12:56:59.205Z,6.62
2022-12-03T12:59:29.984Z,6.66
2022-12-03T13:01:59.482Z,6.66
2022-12-03T13:04:31.529Z,6.67
2022-12-03T13:07:01.294Z,6.65
2022-12-03T13:09:31.014Z,6.60
2022-12-03T13:12:03.951Z,6.62
2022-12-03T13:14:36.444Z,6.67
2022-12-03T13:17:13.993Z,6.68
2022-12-03T13:19:49.450Z,6.66
2022-12-03T13:22:22.321Z,6.67
2022-12-03T13:24:52.657Z,6.67
2022-12-03T13:27:25.708Z,6.69
2022-12-03T13:29:56.295Z,6.69
2022-12-03T13:32:30.847Z,6.69
2022-12-03T13:35:05.102Z,6.64
2022-12-03T13:37:34.840Z,6.60
2022-12-03T13:40:09.487Z,6.59
2022-12-03T13:42:42.357Z,6.59
2022-12-03T13:45:38.688Z,6.57
2022-12-03T13:48:19.277Z,6.57
2022-12-03T13:50:50.947Z,6.55
2022-12-03T13:53:22.117Z,6.54
2022-12-03T13:55:52.939Z,6.52
2022-12-03T13:58:22.395Z,6.52
2022-12-03T14:00:52.183Z,6.55
2022-12-03T14:03:23.343Z,6.53
2022-12-03T14:05:54.300Z,6.50
2022-12-03T14:08:23.803Z,6.51
2022-12-03T14:10:59.934Z,6.51
2022-12-03T14:13:30.877Z,6.53
2022-12-03T14:16:01.087Z,6.56
2022-12-03T14:18:30.717Z,6.54
2022-12-03T14:21:01.888Z,6.54
2022-12-03T14:23:31.400Z,6.52
2022-12-03T14:26:01.437Z,6.48
2022-12-03T14:28:30.964Z,6.47
2022-12-03T14:31:00.833Z,6.51
2022-12-03T14:33:30.344Z,6.50
2022-12-03T14:36:01.524Z,6.52
2022-12-03T14:38:31.218Z,6.51
2022-12-03T14:41:01.071Z,6.48
2022-12-03T14:43:30.512Z,6.45
2022-12-03T14:46:00.173Z,6.48
2022-12-03T14:48:29.963Z,6.45
2022-12-03T14:50:59.723Z,6.45
2022-12-03T14:53:30.732Z,6.49
2022-12-03T14:56:00.289Z,6.47
2022-12-03T14:58:29.782Z,6.51
2022-12-03T15:00:59.863Z,6.52
2022-12-03T15:03:29.473Z,6.48
2022-12-03T15:06:00.635Z,6.47
2022-12-03T15:08:31.837Z,6.45
2022-12-03T15:11:02.861Z,6.44
2022-12-03T15:13:33.846Z,6.45
2022-12-03T15:16:03.858Z,6.43
2022-12-03T15:18:34.626Z,6.46
2022-12-03T15:21:04.634Z,6.45
2022-12-03T15:23:35.870Z,6.46
2022-12-03T15:26:05.415Z,6.40
2022-12-03T15:28:35.138Z,6.44
2022-12-03T15:31:04.771Z,6.44
2022-12-03T15:33:34.347Z,6.42
2022-12-03T15:36:03.900Z,6.42
2022-12-03T15:38:34.963Z,6.44
2022-12-03T15:41:21.017Z,6.42
2022-12-03T15:43:51.246Z,6.41
2022-12-03T15:46:21.379Z,6.42
2022-12-03T15:48:51.046Z,6.40
2022-12-03T15:51:20.612Z,6.39
2022-12-03T15:53:51.720Z,6.38
2022-12-03T15:56:21.590Z,6.37
2022-12-03T15:58:51.318Z,6.38
2022-12-03T16:01:21.026Z,6.41
2022-12-03T16:03:50.828Z,6.44
2022-12-03T16:06:20.364Z,6.44
2022-12-03T16:08:51.413Z,6.47
2022-12-03T16:11:21.179Z,6.47
2022-12-03T16:13:51.199Z,6.49
2022-12-03T16:16:21.319Z,6.48
2022-12-03T16:18:52.262Z,6.50
2022-12-03T16:21:26.499Z,6.49
2022-12-03T16:23:58.371Z,6.47
2022-12-03T16:26:27.937Z,6.47
2022-12-03T16:28:57.534Z,6.47
2022-12-03T16:31:27.488Z,6.45
2022-12-03T16:33:57.353Z,6.41
2022-12-03T16:36:27.117Z,6.47
2022-12-03T16:38:58.179Z,6.53
2022-12-03T16:41:27.783Z,6.52
2022-12-03T16:43:57.515Z,6.52
2022-12-03T16:46:27.124Z,6.46
2022-12-03T16:48:59.099Z,6.44
2022-12-03T16:51:30.306Z,6.42
2022-12-03T16:54:01.615Z,6.43
2022-12-03T16:56:31.082Z,6.42
2022-12-03T16:59:00.617Z,6.41
2022-12-03T17:01:30.334Z,6.42
2022-12-03T17:03:59.950Z,6.42
2022-12-03T17:06:29.413Z,6.41
2022-12-03T17:09:02.106Z,6.42
2022-12-03T17:11:31.779Z,6.42
2022-12-03T17:14:01.905Z,6.41
2022-12-03T17:16:32.051Z,6.41
2022-12-03T17:19:01.837Z,6.44
2022-12-03T17:21:34.918Z,6.47
2022-12-03T17:24:06.300Z,6.46
2022-12-03T17:26:35.798Z,6.43
2022-12-03T17:29:05.353Z,6.47
2022-12-03T17:31:41.460Z,6.39
2022-12-03T17:34:11.663Z,6.42
2022-12-03T17:36:41.161Z,6.41
2022-12-03T17:39:12.133Z,6.44
2022-12-03T17:41:41.883Z,6.40
2022-12-03T17:44:16.334Z,6.42
2022-12-03T17:46:49.118Z,6.44
2022-12-03T17:49:18.998Z,6.47
2022-12-03T17:51:48.590Z,6.50
2022-12-03T17:54:19.775Z,6.49
2022-12-03T17:56:49.499Z,6.47
2022-12-03T17:59:22.370Z,6.45
2022-12-03T18:01:52.051Z,6.44
2022-12-03T18:04:21.857Z,6.50
2022-12-03T18:06:51.552Z,6.51
2022-12-03T18:09:22.528Z,6.49
2022-12-03T18:11:52.811Z,6.45
2022-12-03T18:14:22.400Z,6.47
2022-12-03T18:16:51.948Z,6.42
2022-12-03T18:19:21.578Z,6.46
2022-12-03T18:21:51.271Z,6.45
2022-12-03T18:24:22.398Z,6.45
2022-12-03T18:26:52.490Z,6.50
2022-12-03T18:29:22.093Z,6.51
2022-12-03T18:31:51.750Z,6.49
2022-12-03T18:34:21.504Z,6.49
2022-12-03T18:36:51.355Z,6.48
2022-12-03T18:39:25.475Z,6.50
2022-12-03T18:41:55.287Z,6.52
2022-12-03T18:44:25.090Z,6.54
2022-12-03T18:46:55.033Z,6.50
2022-12-03T18:49:24.869Z,6.52
2022-12-03T18:51:59.353Z,6.53
2022-12-03T18:54:30.642Z,6.46
2022-12-03T18:57:00.991Z,6.48
2022-12-03T18:59:30.692Z,6.48
2022-12-03T19:02:00.966Z,6.51
2022-12-03T19:04:30.696Z,6.48
2022-12-03T19:07:00.577Z,6.47
2022-12-03T19:09:31.570Z,6.45
2022-12-03T19:12:01.974Z,6.46
2022-12-03T19:14:32.123Z,6.44
2022-12-03T19:17:02.701Z,6.43
2022-12-03T19:19:32.339Z,6.42
2022-12-03T19:22:01.897Z,6.40
2022-12-03T19:24:32.933Z,6.40
2022-12-03T19:27:02.612Z,6.34
2022-12-03T19:29:32.262Z,6.38
2022-12-03T19:32:02.274Z,6.36
2022-12-03T19:34:31.873Z,6.36
2022-12-03T19:37:01.544Z,6.36
2022-12-03T19:39:33.291Z,6.42
2022-12-03T19:42:02.899Z,6.51
2022-12-03T19:44:32.485Z,6.47
2022-12-03T19:47:02.702Z,6.45
2022-12-03T19:49:32.776Z,6.43
2022-12-03T19:52:02.347Z,6.40
2022-12-03T19:54:33.539Z,6.39
2022-12-03T19:57:03.491Z,6.38
2022-12-03T19:59:33.441Z,6.42
2022-12-03T20:02:02.984Z,6.45
2022-12-03T20:04:32.893Z,6.41
2022-12-03T20:07:02.569Z,6.40
2022-12-03T20:09:33.528Z,6.40
2022-12-03T20:12:03.911Z,6.38
2022-12-03T20:14:34.205Z,6.37
2022-12-03T20:17:04.367Z,6.39
2022-12-03T20:19:34.276Z,6.42
2022-12-03T20:22:04.157Z,6.44
2022-12-03T20:24:35.212Z,6.38
2022-12-03T20:27:05.163Z,6.35
2022-12-03T20:29:36.867Z,6.36
2022-12-03T20:32:07.363Z,6.34
2022-12-03T20:34:37.390Z,6.33
2022-12-03T20:37:07.198Z,6.39
2022-12-03T20:39:38.061Z,6.40
2022-12-03T20:42:07.924Z,6.37
2022-12-03T20:44:38.505Z,6.37
2022-12-03T20:47:08.036Z,6.37
2022-12-03T20:49:39.088Z,6.36
2022-12-03T20:52:08.787Z,6.35
2022-12-03T20:54:40.033Z,6.36
2022-12-03T20:57:09.564Z,6.34
2022-12-03T20:59:39.110Z,6.33
2022-12-03T21:02:08.746Z,6.30
2022-12-03T21:04:38.374Z,6.25
2022-12-03T21:07:08.168Z,6.25
2022-12-03T21:09:37.770Z,6.23
2022-12-03T21:12:09.327Z,6.19
2022-12-03T21:14:39.509Z,6.19
2022-12-03T21:17:09.988Z,6.26
2022-12-03T21:19:39.654Z,6.21
2022-12-03T21:22:09.256Z,6.23
2022-12-03T21:24:38.929Z,6.21
2022-12-03T21:27:09.901Z,6.26
2022-12-03T21:29:39.619Z,6.26
2022-12-03T21:32:09.283Z,6.23
2022-12-03T21:34:38.972Z,6.20
2022-12-03T21:37:08.429Z,6.23
2022-12-03T21:39:38.632Z,6.22
2022-12-03T21:42:34.800Z,6.20
2022-12-03T21:44:59.106Z,6.20
2022-12-03T21:47:33.470Z,6.18
2022-12-03T21:50:07.399Z,6.13
2022-12-03T21:52:36.907Z,6.13
2022-12-03T21:55:07.429Z,6.11
2022-12-03T21:57:38.422Z,6.12
2022-12-03T22:00:09.121Z,6.19
2022-12-03T22:02:39.291Z,6.21
2022-12-03T22:05:09.573Z,6.21
2022-12-03T22:07:39.983Z,6.16
2022-12-03T22:10:10.782Z,6.21
2022-12-03T22:12:42.337Z,6.17
2022-12-03T22:15:18.401Z,6.16
2022-12-03T22:17:49.031Z,6.13
2022-12-03T22:20:18.836Z,6.18
2022-12-03T22:22:48.523Z,6.18
2022-12-03T22:25:18.508Z,6.09
2022-12-03T22:27:49.409Z,6.12
2022-12-03T22:30:19.028Z,6.08
2022-12-03T22:32:48.558Z,6.10
2022-12-03T22:35:19.263Z,6.07
2022-12-03T22:37:48.832Z,6.08
2022-12-03T22:40:18.446Z,6.08
2022-12-03T22:42:51.082Z,6.15
2022-12-03T22:45:20.816Z,6.10
2022-12-03T22:47:50.374Z,6.13
2022-12-03T22:50:20.102Z,6.12
2022-12-03T22:52:49.609Z,6.18
2022-12-03T22:55:19.244Z,6.17
2022-12-03T22:57:50.215Z,6.05
2022-12-03T23:00:28.946Z,6.14
2022-12-03T23:02:58.425Z,6.08
2022-12-03T23:05:31.321Z,6.02
2022-12-03T23:08:01.011Z,5.91
2022-12-03T23:10:33.984Z,5.98
2022-12-03T23:13:05.932Z,6.08
2022-12-03T23:15:36.069Z,5.98
2022-12-03T23:18:06.021Z,5.99
2022-12-03T23:20:35.831Z,5.99
2022-12-03T23:23:05.369Z,6.03
2022-12-03T23:25:34.919Z,5.97
2022-12-03T23:28:06.199Z,5.99
2022-12-03T23:30:36.271Z,6.03
2022-12-03T23:33:06.729Z,5.99
2022-12-03T23:35:36.395Z,6.03
2022-12-03T23:38:06.031Z,5.99
2022-12-03T23:40:35.524Z,6.03
2022-12-03T23:43:06.401Z,5.97
2022-12-03T23:45:35.874Z,5.89
2022-12-03T23:48:05.410Z,5.90
2022-12-03T23:50:35.668Z,5.90
2022-12-03T23:53:05.173Z,5.89
2022-12-03T23:55:34.816Z,5.96
2022-12-03T23:58:04.322Z,5.95
